Time;durP1;ratioP1;P1;durP2;ratioP2;P2;SDS_P1;SDS_P2;PMS_P1;PMS_P2;Temp;Humidity;BMP_temperature;BMP_pressure;BME280_temperature;BME280_humidity;BME280_pressure;Samples;Min_cycle;Max_cycle;Signal;HPM_P1;HPM_P2
2021/12/26 00:00:31;;;;;;;2.22;1.30;;;13.00;49.70;;;;;;5051606;28;20135;-75
2021/12/26 00:02:59;;;;;;;1.73;1.30;;;;;;;;;;5051143;28;20131;-75
2021/12/26 00:05:26;;;;;;;2.10;1.45;;;;;;;;;;5051215;28;20520;-75
2021/12/26 00:07:53;;;;;;;2.67;1.40;;;12.60;58.80;;;;;;5052493;28;20132;-75
2021/12/26 00:10:21;;;;;;;1.83;1.50;;;12.40;50.80;;;;;;5049470;28;20469;-75
2021/12/26 00:12:48;;;;;;;1.40;1.20;;;13.00;59.20;;;;;;5051388;28;20071;-75
2021/12/26 00:15:15;;;;;;;3.45;1.60;;;12.30;58.90;;;;;;5051046;28;20053;-75
2021/12/26 00:17:43;;;;;;;2.08;1.33;;;12.80;55.00;;;;;;5051054;28;20140;-75
2021/12/26 00:20:11;;;;;;;2.25;1.50;;;12.60;54.90;;;;;;5051148;28;20082;-75
2021/12/26 00:22:38;;;;;;;1.55;1.20;;;12.40;48.70;;;;;;5051205;28;20542;-75
2021/12/26 00:25:06;;;;;;;4.93;1.73;;;12.30;48.60;;;;;;5051205;28;20080;-75
2021/12/26 00:27:33;;;;;;;2.60;1.38;;;;;;;;;;5049327;28;20142;-75
2021/12/26 00:30:00;;;;;;;2.15;1.35;;;;;;;;;;5050791;28;20561;-75
2021/12/26 00:32:27;;;;;;;3.10;1.58;;;12.20;59.10;;;;;;5050845;28;20167;-75
2021/12/26 00:34:56;;;;;;;2.38;1.50;;;12.20;48.70;;;;;;5051018;28;20134;-75
2021/12/26 00:37:23;;;;;;;2.35;1.52;;;12.30;58.90;;;;;;5050334;28;20195;-75
2021/12/26 00:39:50;;;;;;;1.88;1.30;;;;;;;;;;5051918;28;20088;-75
2021/12/26 00:42:17;;;;;;;1.75;1.27;;;;;;;;;;5050731;28;20085;-75
2021/12/26 00:44:44;;;;;;;1.92;1.48;;;;;;;;;;5050282;28;20409;-75
2021/12/26 00:47:11;;;;;;;2.25;1.50;;;;;;;;;;5050433;28;20159;-75
2021/12/26 00:49:38;;;;;;;2.30;1.60;;;;;;;;;;5050373;28;20140;-75
2021/12/26 00:52:08;;;;;;;2.58;1.50;;;12.10;59.20;;;;;;5050697;28;20057;-75
2021/12/26 00:54:35;;;;;;;3.28;1.50;;;;;;;;;;5050799;28;20088;-75
2021/12/26 00:57:02;;;;;;;1.65;1.23;;;;;;;;;;5050401;28;20131;-75
2021/12/26 00:59:29;;;;;;;2.33;1.50;;;12.10;59.30;;;;;;5050665;28;20083;-75
2021/12/26 01:01:57;;;;;;;1.77;1.27;;;12.10;48.80;;;;;;5049174;28;20234;-75
2021/12/26 01:04:24;;;;;;;2.40;1.55;;;12.00;59.00;;;;;;5049918;28;20084;-75
2021/12/26 01:06:51;;;;;;;2.45;1.40;;;;;;;;;;5052000;28;20136;-75
2021/12/26 01:09:24;;;;;;;1.83;1.30;;;12.10;59.40;;;;;;5054821;28;20493;-75
2021/12/26 01:11:55;;;;;;;2.33;1.50;;;;;;;;;;5055864;28;20049;-75
2021/12/26 01:14:26;;;;;;;2.38;1.58;;;12.00;59.10;;;;;;5054555;28;20084;-75
2021/12/26 01:17:01;;;;;;;2.88;1.40;;;;;;;;;;5054070;28;20045;-75
2021/12/26 01:19:33;;;;;;;2.10;1.67;;;11.90;59.20;;;;;;5054440;28;20049;-75
2021/12/26 01:22:00;;;;;;;1.50;1.20;;;12.30;59.00;;;;;;5054679;28;20056;-75
2021/12/26 01:24:28;;;;;;;2.30;1.50;;;12.20;59.20;;;;;;5054377;28;20103;-75
2021/12/26 01:26:55;;;;;;;2.40;1.45;;;12.10;58.80;;;;;;5054235;28;20132;-75
2021/12/26 01:29:22;;;;;;;1.95;1.20;;;12.10;58.70;;;;;;5054412;28;20143;-75
2021/12/26 01:31:48;;;;;;;1.35;1.20;;;12.10;58.90;;;;;;5054472;28;20135;-75
2021/12/26 01:34:16;;;;;;;1.92;1.30;;;;;;;;;;5053382;28;20091;-75
2021/12/26 01:36:42;;;;;;;1.85;1.30;;;12.20;58.60;;;;;;5033767;28;20059;-75
2021/12/26 01:39:10;;;;;;;2.28;1.38;;;12.20;58.90;;;;;;5034087;28;20132;-75
2021/12/26 01:41:41;;;;;;;2.83;1.42;;;12.10;48.50;;;;;;5034261;28;20061;-75
2021/12/26 01:44:10;;;;;;;2.65;1.50;;;12.20;48.60;;;;;;5034343;28;20153;-75
2021/12/26 01:46:38;;;;;;;1.65;1.10;;;;;;;;;;5033476;28;20457;-75
2021/12/26 01:49:07;;;;;;;1.77;1.42;;;12.00;58.70;;;;;;5034019;28;20136;-75
2021/12/26 01:51:35;;;;;;;2.20;1.30;;;;;;;;;;5035378;28;20077;-75
2021/12/26 01:54:05;;;;;;;1.73;1.38;;;;;;;;;;5044018;28;20139;-75
2021/12/26 01:56:32;;;;;;;1.83;1.23;;;;;;;;;;5053608;28;20516;-75
2021/12/26 01:59:01;;;;;;;2.17;1.50;;;12.40;59.10;;;;;;5053635;28;20135;-75
2021/12/26 02:01:28;;;;;;;1.70;1.23;;;;;;;;;;5053872;28;20144;-75
2021/12/26 02:03:55;;;;;;;2.17;1.20;;;;;;;;;;5053527;28;20136;-75
2021/12/26 02:06:22;;;;;;;1.65;1.30;;;11.40;58.30;;;;;;5053541;28;20059;-75
2021/12/26 02:08:49;;;;;;;2.30;1.30;;;;;;;;;;5051585;28;20052;-75
2021/12/26 02:11:15;;;;;;;1.98;1.38;;;12.30;59.00;;;;;;5044688;28;20137;-75
2021/12/26 02:13:43;;;;;;;2.15;1.50;;;;;;;;;;5033465;28;20145;-75
2021/12/26 02:16:11;;;;;;;2.15;1.40;;;12.10;58.90;;;;;;5033373;28;20054;-75
2021/12/26 02:18:39;;;;;;;1.55;1.30;;;;;;;;;;5032861;28;20132;-75
2021/12/26 02:21:17;;;;;;;2.75;1.40;;;12.10;58.60;;;;;;5033469;28;20092;-75
2021/12/26 02:23:51;;;;;;;1.77;1.45;;;12.20;58.90;;;;;;5033447;28;20441;-75
2021/12/26 02:29:02;;;;;;;2.85;1.50;;;;;;;;;;5050148;28;20049;-75
2021/12/26 02:31:29;;;;;;;2.35;1.50;;;12.00;55.10;;;;;;5033370;28;20132;-75
2021/12/26 02:33:56;;;;;;;2.22;1.30;;;12.40;58.70;;;;;;5033173;28;20136;-75
2021/12/26 02:36:24;;;;;;;1.45;1.23;;;12.30;58.70;;;;;;5032797;28;20155;-75
2021/12/26 02:38:51;;;;;;;1.98;1.30;;;;;;;;;;5033207;28;20471;-75
2021/12/26 02:41:18;;;;;;;1.80;1.30;;;12.20;58.80;;;;;;5033160;28;20546;-75
2021/12/26 02:43:44;;;;;;;2.58;1.45;;;12.20;58.80;;;;;;5034384;28;20085;-75
2021/12/26 02:46:11;;;;;;;2.42;1.40;;;;;;;;;;5032672;28;20140;-75
2021/12/26 02:48:39;;;;;;;2.45;1.35;;;12.30;58.70;;;;;;5033089;28;20052;-75
2021/12/26 02:51:06;;;;;;;2.80;1.48;;;12.20;58.70;;;;;;5032967;28;20498;-75
2021/12/26 02:53:34;;;;;;;2.28;1.40;;;12.00;58.80;;;;;;5033104;28;20069;-75
2021/12/26 02:56:01;;;;;;;1.88;1.25;;;12.20;58.70;;;;;;5032643;28;20426;-75
2021/12/26 02:58:28;;;;;;;1.65;1.38;;;12.20;49.20;;;;;;5032765;28;20124;-75
2021/12/26 03:00:56;;;;;;;2.40;1.50;;;12.20;48.20;;;;;;5033876;28;20136;-75
2021/12/26 03:03:22;;;;;;;2.40;1.50;;;12.20;58.70;;;;;;5032748;28;20132;-75
2021/12/26 03:05:55;;;;;;;2.25;1.40;;;12.30;58.60;;;;;;5032522;28;20079;-75
2021/12/26 03:08:22;;;;;;;1.67;1.33;;;;;;;;;;5032807;28;20061;-75
2021/12/26 03:10:52;;;;;;;2.47;1.38;;;12.20;48.10;;;;;;5032302;28;20103;-75
2021/12/26 03:13:19;;;;;;;2.25;1.45;;;12.30;58.20;;;;;;5032218;28;20072;-75
2021/12/26 03:15:46;;;;;;;1.90;1.13;;;;;;;;;;5032336;28;20506;-75
2021/12/26 03:18:13;;;;;;;1.80;1.38;;;;;;;;;;5033430;28;20080;-75
2021/12/26 03:20:42;;;;;;;1.70;1.30;;;12.50;58.90;;;;;;5032426;28;20144;-75
2021/12/26 03:23:10;;;;;;;1.67;1.30;;;12.20;58.60;;;;;;5032250;28;20075;-75
2021/12/26 03:25:36;;;;;;;2.10;1.50;;;12.10;49.40;;;;;;5032111;28;20136;-75
2021/12/26 03:28:06;;;;;;;2.15;1.40;;;12.30;58.70;;;;;;5032339;28;20132;-75
2021/12/26 03:30:33;;;;;;;1.52;1.20;;;;;;;;;;5031167;28;20406;-75
2021/12/26 03:33:01;;;;;;;1.50;1.20;;;;;;;;;;5032348;28;20136;-75
2021/12/26 03:35:28;;;;;;;2.95;1.50;;;12.20;58.50;;;;;;5032894;28;20517;-75
2021/12/26 03:37:55;;;;;;;2.00;1.60;;;;;;;;;;5031861;28;20498;-75
2021/12/26 03:40:22;;;;;;;2.25;1.35;;;;;;;;;;5031947;28;20144;-75
2021/12/26 03:42:51;;;;;;;1.92;1.30;;;;;;;;;;5042400;28;20063;-75
2021/12/26 03:45:19;;;;;;;2.10;1.40;;;12.20;58.40;;;;;;5051912;28;20409;-75
2021/12/26 03:47:48;;;;;;;1.90;1.30;;;12.20;58.60;;;;;;5051478;28;20136;-75
2021/12/26 03:50:16;;;;;;;1.70;1.27;;;12.10;58.40;;;;;;5051154;28;20047;-75
2021/12/26 03:52:43;;;;;;;2.03;1.33;;;12.50;51.10;;;;;;5050130;28;20128;-75
2021/12/26 03:55:10;;;;;;;1.92;1.40;;;12.20;58.60;;;;;;5051459;28;20160;-75
2021/12/26 03:57:36;;;;;;;2.08;1.35;;;12.10;58.30;;;;;;5051299;28;20045;-75
2021/12/26 04:00:04;;;;;;;2.05;1.35;;;12.20;49.40;;;;;;5051546;28;20048;-75
2021/12/26 04:02:32;;;;;;;2.55;1.33;;;12.20;49.00;;;;;;5051477;28;20151;-75
2021/12/26 04:05:00;;;;;;;1.90;1.30;;;;;;;;;;5051247;28;20132;-75
2021/12/26 04:07:26;;;;;;;2.38;1.60;;;12.10;58.30;;;;;;5049583;28;20057;-75
2021/12/26 04:09:53;;;;;;;1.45;1.20;;;;;;;;;;5051450;28;20600;-75
2021/12/26 04:12:20;;;;;;;2.70;1.50;;;12.10;58.20;;;;;;5051402;28;20140;-75
2021/12/26 04:14:47;;;;;;;2.35;1.50;;;12.20;58.30;;;;;;5051191;28;20144;-75
2021/12/26 04:17:14;;;;;;;2.13;1.42;;;;;;;;;;5050808;28;20051;-75
2021/12/26 04:19:42;;;;;;;2.38;1.50;;;12.10;47.90;;;;;;5051218;28;20055;-75
2021/12/26 04:22:09;;;;;;;2.33;1.50;;;12.50;58.60;;;;;;5051323;28;20080;-75
2021/12/26 04:24:36;;;;;;;2.33;1.40;;;;;;;;;;5049595;28;20051;-75
2021/12/26 04:27:03;;;;;;;2.00;1.38;;;12.20;58.20;;;;;;5050904;28;20059;-75
2021/12/26 04:29:30;;;;;;;1.75;1.20;;;;;;;;;;5050968;28;20135;-75
2021/12/26 04:31:57;;;;;;;3.53;1.40;;;11.90;58.00;;;;;;5051144;28;20052;-75
2021/12/26 04:34:24;;;;;;;2.80;1.75;;;;;;;;;;5051052;28;20139;-75
2021/12/26 04:36:52;;;;;;;3.15;1.67;;;12.10;58.10;;;;;;5050733;28;20397;-75
2021/12/26 04:39:19;;;;;;;2.45;1.50;;;12.00;58.30;;;;;;5051991;28;20391;-75
2021/12/26 04:41:46;;;;;;;2.58;1.60;;;;;;;;;;5048863;28;20081;-75
2021/12/26 04:44:13;;;;;;;2.03;1.40;;;12.10;58.30;;;;;;5050956;28;20055;-75
2021/12/26 04:46:40;;;;;;;2.85;1.50;;;12.20;58.10;;;;;;5050825;28;20072;-75
2021/12/26 04:49:07;;;;;;;2.55;1.50;;;12.20;58.30;;;;;;5050425;28;20064;-75
2021/12/26 04:51:35;;;;;;;2.10;1.40;;;12.10;53.30;;;;;;5050837;28;20140;-75
2021/12/26 04:54:03;;;;;;;2.15;1.48;;;12.20;58.10;;;;;;5050593;28;20140;-75
2021/12/26 04:56:31;;;;;;;2.20;1.35;;;12.10;58.30;;;;;;5050614;28;20057;-75
2021/12/26 04:58:59;;;;;;;2.17;1.38;;;;;;;;;;5048367;28;20624;-75
2021/12/26 05:01:25;;;;;;;2.00;1.40;;;12.10;58.00;;;;;;5050566;28;20089;-75
2021/12/26 05:03:52;;;;;;;2.47;1.30;;;12.20;58.10;;;;;;5050717;28;20136;-75
2021/12/26 05:06:19;;;;;;;2.28;1.60;;;;;;;;;;5050520;28;20136;-75
2021/12/26 05:08:46;;;;;;;2.20;1.50;;;;;;;;;;5050597;28;20137;-75
2021/12/26 05:11:14;;;;;;;1.75;1.50;;;12.10;47.70;;;;;;5050747;28;20565;-75
2021/12/26 05:13:41;;;;;;;2.13;1.38;;;;;;;;;;5050620;28;20136;-75
2021/12/26 05:16:08;;;;;;;1.95;1.50;;;12.20;58.30;;;;;;5048239;28;20473;-75
2021/12/26 05:18:35;;;;;;;2.08;1.50;;;12.00;58.00;;;;;;5049883;28;20139;-75
2021/12/26 05:21:01;;;;;;;2.58;1.50;;;12.00;53.20;;;;;;5050373;28;20076;-75
2021/12/26 05:23:28;;;;;;;1.77;1.50;;;12.10;58.00;;;;;;5050607;28;20475;-75
2021/12/26 05:25:55;;;;;;;2.22;1.50;;;;;;;;;;5050119;28;20552;-75
2021/12/26 05:28:23;;;;;;;1.92;1.42;;;12.40;58.20;;;;;;5050518;28;20084;-75
2021/12/26 05:30:50;;;;;;;1.67;1.33;;;12.10;58.30;;;;;;5050244;28;20131;-75
2021/12/26 05:33:17;;;;;;;2.70;1.50;;;12.10;58.30;;;;;;5048811;28;20474;-75
2021/12/26 05:35:44;;;;;;;2.28;1.45;;;;;;;;;;5050099;28;20080;-75
2021/12/26 05:38:11;;;;;;;1.77;1.38;;;12.00;58.30;;;;;;5050286;28;20056;-75
2021/12/26 05:40:38;;;;;;;2.00;1.40;;;;;;;;;;5050368;28;20140;-75
2021/12/26 05:43:04;;;;;;;2.10;1.40;;;12.30;58.40;;;;;;5050345;28;20144;-75
2021/12/26 05:45:33;;;;;;;1.90;1.30;;;12.00;47.60;;;;;;5049959;28;20060;-75
2021/12/26 05:47:59;;;;;;;2.97;1.55;;;12.10;58.30;;;;;;5050327;28;20128;-75
2021/12/26 05:50:26;;;;;;;2.15;1.40;;;;;;;;;;5048122;28;20052;-75
2021/12/26 05:52:53;;;;;;;2.63;1.50;;;;;;;;;;5050238;28;20144;-75
2021/12/26 05:55:21;;;;;;;2.00;1.50;;;;;;;;;;5053945;28;20084;-75
2021/12/26 05:57:47;;;;;;;2.60;1.50;;;11.90;57.80;;;;;;5053797;28;20080;-75
2021/12/26 06:00:15;;;;;;;2.50;1.70;;;12.10;47.50;;;;;;5053860;28;20494;-75
2021/12/26 06:02:43;;;;;;;2.75;1.67;;;12.00;47.40;;;;;;5054006;28;20130;-75
2021/12/26 06:05:11;;;;;;;1.85;1.40;;;;;;;;;;5053309;28;20148;-75
2021/12/26 06:07:38;;;;;;;2.75;1.70;;;;;;;;;;5052012;28;20533;-75
2021/12/26 06:10:05;;;;;;;2.08;1.50;;;;;;;;;;5053639;28;20128;-75
2021/12/26 06:12:32;;;;;;;3.00;1.70;;;12.10;58.00;;;;;;5053773;28;20056;-75
2021/12/26 06:14:59;;;;;;;2.28;1.50;;;;;;;;;;5053756;28;20569;-75
2021/12/26 06:17:26;;;;;;;2.72;1.58;;;12.20;58.00;;;;;;5053650;28;20075;-76
2021/12/26 06:19:54;;;;;;;2.67;1.63;;;12.00;47.40;;;;;;5053319;28;20096;-75
2021/12/26 06:22:21;;;;;;;2.90;1.60;;;;;;;;;;5053517;28;20147;-75
2021/12/26 06:24:48;;;;;;;3.53;1.75;;;;;;;;;;5051872;28;20509;-75
2021/12/26 06:27:15;;;;;;;3.28;1.60;;;;;;;;;;5053147;28;20079;-75
2021/12/26 06:29:42;;;;;;;2.00;1.50;;;12.30;57.90;;;;;;5053124;28;20132;-75
2021/12/26 06:32:08;;;;;;;2.92;1.65;;;12.10;58.00;;;;;;5053312;28;20550;-75
2021/12/26 06:34:35;;;;;;;2.92;1.48;;;12.20;52.50;;;;;;5053102;28;20155;-75
2021/12/26 06:37:04;;;;;;;1.73;1.40;;;12.10;57.80;;;;;;5053047;28;20135;-75
2021/12/26 06:39:30;;;;;;;2.38;1.55;;;12.00;57.70;;;;;;5052820;28;20504;-75
2021/12/26 06:41:57;;;;;;;2.75;1.60;;;;;;;;;;5051476;28;20131;-75
2021/12/26 06:44:24;;;;;;;3.03;1.60;;;12.10;58.00;;;;;;5052890;28;20059;-75
2021/12/26 06:46:51;;;;;;;2.20;1.70;;;12.00;57.80;;;;;;5052636;28;20073;-75
2021/12/26 06:49:18;;;;;;;2.70;1.60;;;12.00;51.90;;;;;;5052830;28;20557;-75
2021/12/26 06:51:45;;;;;;;2.55;1.90;;;12.00;58.10;;;;;;5053054;28;20053;-75
2021/12/26 06:54:13;;;;;;;2.95;1.58;;;12.10;50.00;;;;;;5052998;28;20088;-75
2021/12/26 06:56:40;;;;;;;2.33;1.58;;;;;;;;;;5052371;28;20084;-75
2021/12/26 06:59:07;;;;;;;2.38;1.75;;;12.10;58.20;;;;;;5050599;28;20131;-75
2021/12/26 07:01:34;;;;;;;3.10;1.80;;;;;;;;;;5053805;28;20476;-75
2021/12/26 07:04:01;;;;;;;2.63;1.58;;;12.30;58.10;;;;;;5052571;28;20235;-75
2021/12/26 07:06:28;;;;;;;2.30;1.60;;;;;;;;;;5052456;28;20136;-75
2021/12/26 07:08:54;;;;;;;2.10;1.52;;;12.20;58.10;;;;;;5052393;28;20136;-75
2021/12/26 07:11:22;;;;;;;2.10;1.45;;;11.70;57.60;;;;;;5052727;28;20521;-75
2021/12/26 07:13:49;;;;;;;2.15;1.48;;;12.00;57.70;;;;;;5052436;28;20546;-75
2021/12/26 07:16:16;;;;;;;2.15;1.48;;;;;;;;;;5034203;28;20141;-75
2021/12/26 07:18:43;;;;;;;3.13;1.58;;;11.90;57.90;;;;;;5042960;28;20045;-75
2021/12/26 07:21:10;;;;;;;2.25;1.50;;;12.30;58.10;;;;;;5052190;28;20136;-75
2021/12/26 07:23:37;;;;;;;2.60;1.75;;;;;;;;;;5052447;28;20111;-75
2021/12/26 07:26:04;;;;;;;2.35;1.60;;;11.90;57.90;;;;;;5051656;28;20083;-75
2021/12/26 07:28:32;;;;;;;2.13;1.60;;;12.00;47.20;;;;;;5052022;28;20068;-75
2021/12/26 07:30:59;;;;;;;2.63;1.60;;;;;;;;;;5051820;28;20577;-75
2021/12/26 07:33:25;;;;;;;2.50;1.70;;;11.90;57.60;;;;;;5046840;28;20128;-75
2021/12/26 07:35:52;;;;;;;2.55;1.77;;;12.00;57.90;;;;;;5051551;28;20136;-75
2021/12/26 07:38:19;;;;;;;2.40;1.60;;;;;;;;;;5051535;28;20140;-75
2021/12/26 07:40:46;;;;;;;2.65;1.50;;;11.80;57.80;;;;;;5051424;28;20053;-75
2021/12/26 07:43:13;;;;;;;2.55;1.55;;;12.10;52.00;;;;;;5051328;28;20477;-75
2021/12/26 07:45:41;;;;;;;2.58;1.80;;;12.20;57.90;;;;;;5051851;28;20131;-75
2021/12/26 07:48:08;;;;;;;2.10;1.40;;;;;;;;;;5050669;28;20558;-75
2021/12/26 07:50:35;;;;;;;3.08;1.55;;;;;;;;;;5050913;28;20100;-75
2021/12/26 07:53:07;;;;;;;2.20;1.60;;;12.00;57.70;;;;;;5051480;28;20132;-75
2021/12/26 07:55:33;;;;;;;2.05;1.63;;;12.00;56.00;;;;;;5051565;28;20057;-75
2021/12/26 07:58:00;;;;;;;2.63;1.60;;;12.20;58.00;;;;;;5051305;28;20136;-75
2021/12/26 08:00:27;;;;;;;1.85;1.55;;;;;;;;;;5051430;28;20057;-75
2021/12/26 08:02:55;;;;;;;1.90;1.45;;;12.00;57.60;;;;;;5051428;28;20136;-75
2021/12/26 08:05:23;;;;;;;2.10;1.58;;;;;;;;;;5049527;28;20132;-75
2021/12/26 08:07:50;;;;;;;2.42;1.50;;;;;;;;;;5051656;28;20160;-75
2021/12/26 08:10:17;;;;;;;2.75;1.58;;;12.10;57.70;;;;;;5051100;28;20131;-75
2021/12/26 08:12:44;;;;;;;1.83;1.30;;;;;;;;;;5051530;28;20516;-75
2021/12/26 08:15:10;;;;;;;2.67;1.58;;;12.10;57.80;;;;;;5050821;28;20088;-75
2021/12/26 08:17:38;;;;;;;1.67;1.35;;;12.40;51.70;;;;;;5050646;28;20140;-75
2021/12/26 08:20:08;;;;;;;3.15;1.60;;;12.00;57.60;;;;;;5050863;28;20122;-74
2021/12/26 08:22:35;;;;;;;4.75;1.85;;;12.10;57.60;;;;;;5049644;28;20477;-73
2021/12/26 08:25:02;;;;;;;5.97;1.95;;;12.30;57.60;;;;;;5051004;28;20088;-74
2021/12/26 08:27:28;;;;;;;4.80;2.08;;;12.00;56.30;;;;;;5050613;28;20080;-74
2021/12/26 08:29:55;;;;;;;6.45;1.70;;;12.00;57.40;;;;;;5050305;28;20073;-75
2021/12/26 08:32:22;;;;;;;4.60;1.70;;;;;;;;;;5048944;28;20257;-75
2021/12/26 08:34:49;;;;;;;6.28;1.67;;;12.20;57.80;;;;;;5047900;28;20083;-75
2021/12/26 08:37:17;;;;;;;2.75;1.58;;;12.10;47.10;;;;;;5050271;28;20064;-75
2021/12/26 08:39:44;;;;;;;2.00;1.50;;;;;;;;;;5048925;28;20041;-75
2021/12/26 08:42:12;;;;;;;3.10;1.63;;;;;;;;;;5048313;28;20080;-75
2021/12/26 08:44:40;;;;;;;2.67;1.58;;;12.10;53.60;;;;;;5050048;28;20428;-75
2021/12/26 08:47:07;;;;;;;4.78;1.55;;;12.20;47.40;;;;;;5049364;28;20131;-75
2021/12/26 08:49:34;;;;;;;1.73;1.40;;;11.90;57.70;;;;;;5050081;28;20144;-75
2021/12/26 08:52:03;;;;;;;4.63;1.60;;;12.30;50.40;;;;;;5050125;28;20059;-75
2021/12/26 08:54:33;;;;;;;3.72;1.73;;;12.20;57.40;;;;;;5047442;28;20060;-75
2021/12/26 08:57:00;;;;;;;3.45;1.50;;;;;;;;;;5051376;28;20040;-75
2021/12/26 08:59:30;;;;;;;3.47;1.75;;;;;;;;;;5049654;28;20417;-75
2021/12/26 09:01:57;;;;;;;2.30;1.60;;;;;;;;;;5049921;28;20054;-75
2021/12/26 09:04:24;;;;;;;2.50;1.50;;;12.60;57.80;;;;;;5049954;28;20135;-75
2021/12/26 09:06:51;;;;;;;3.03;1.50;;;;;;;;;;5051495;28;20128;-75
2021/12/26 09:09:18;;;;;;;2.35;1.70;;;12.30;57.60;;;;;;5050407;28;20494;-75
2021/12/26 09:11:46;;;;;;;3.42;1.65;;;12.40;57.40;;;;;;5050696;28;20140;-75
2021/12/26 09:14:12;;;;;;;2.60;1.67;;;12.00;57.20;;;;;;5050402;28;20064;-75
2021/12/26 09:16:39;;;;;;;3.88;1.63;;;;;;;;;;5049806;28;20179;-75
2021/12/26 09:19:06;;;;;;;2.90;1.60;;;12.20;57.50;;;;;;5050132;28;20136;-75
2021/12/26 09:21:35;;;;;;;3.13;1.73;;;;;;;;;;5050307;28;20053;-75
2021/12/26 09:24:02;;;;;;;2.30;1.50;;;12.20;51.40;;;;;;5049926;28;20136;-75
2021/12/26 09:26:28;;;;;;;1.77;1.50;;;12.30;57.30;;;;;;5038949;28;20083;-74
2021/12/26 09:28:57;;;;;;;2.25;1.30;;;12.30;47.00;;;;;;5053480;28;20072;-74
2021/12/26 09:31:24;;;;;;;1.95;1.42;;;;;;;;;;5053917;28;20088;-74
2021/12/26 09:33:51;;;;;;;2.00;1.50;;;12.30;57.50;;;;;;5054392;28;20212;-74
2021/12/26 09:36:18;;;;;;;2.88;1.80;;;;;;;;;;5054173;28;20136;-74
2021/12/26 09:38:44;;;;;;;2.47;1.55;;;12.60;56.70;;;;;;5054242;28;20558;-74
2021/12/26 09:41:11;;;;;;;2.25;1.60;;;12.50;57.30;;;;;;5054264;28;20540;-73
2021/12/26 09:43:38;;;;;;;2.15;1.48;;;12.40;48.40;;;;;;5055171;28;20131;-73
2021/12/26 09:46:06;;;;;;;2.05;1.50;;;12.40;57.50;;;;;;5053656;28;20493;-74
2021/12/26 09:48:33;;;;;;;3.28;1.40;;;12.50;57.60;;;;;;5054348;28;20088;-74
2021/12/26 09:51:00;;;;;;;2.08;1.50;;;;;;;;;;5053821;28;20148;-73
2021/12/26 09:53:27;;;;;;;1.50;1.20;;;12.50;57.40;;;;;;5054132;28;20144;-74
2021/12/26 09:55:54;;;;;;;2.25;1.40;;;12.30;57.60;;;;;;5054997;28;20140;-73
2021/12/26 09:58:21;;;;;;;1.73;1.45;;;12.40;47.80;;;;;;5053413;28;20077;-75
2021/12/26 10:00:48;;;;;;;2.20;1.60;;;12.40;47.10;;;;;;5053659;28;20464;-76
2021/12/26 10:03:19;;;;;;;2.80;1.75;;;12.40;47.10;;;;;;5047278;28;20549;-75
2021/12/26 10:06:01;;;;;;;3.85;1.30;;;12.40;47.10;;;;;;5052811;28;20048;-75
2021/12/26 10:08:28;;;;;;;2.40;1.70;;;12.50;57.50;;;;;;5050374;28;20132;-75
2021/12/26 10:11:12;;;;;;;2.50;1.50;;;12.50;54.20;;;;;;5053128;28;20442;-75
2021/12/26 10:13:44;;;;;;;3.13;1.70;;;12.10;53.10;;;;;;5053705;28;20055;-73
2021/12/26 10:16:12;;;;;;;4.55;1.98;;;13.00;53.90;;;;;;5053444;28;20077;-74
2021/12/26 10:18:40;;;;;;;3.42;2.00;;;12.40;57.60;;;;;;5053802;28;20112;-74
2021/12/26 10:21:42;;;;;;;8.35;2.20;;;12.60;55.90;;;;;;5050105;28;20057;-74
2021/12/26 10:24:13;;;;;;;10.63;2.53;;;12.50;57.60;;;;;;4996750;28;20054;-76
2021/12/26 10:26:40;;;;;;;6.78;2.17;;;12.70;57.60;;;;;;5042379;28;20080;-75
2021/12/26 10:29:13;;;;;;;6.38;2.20;;;12.50;52.60;;;;;;5052144;28;20120;-75
2021/12/26 10:31:44;;;;;;;7.95;2.70;;;12.10;57.00;;;;;;5051855;28;20136;-75
2021/12/26 10:34:17;;;;;;;5.53;2.08;;;12.30;47.00;;;;;;5052148;28;20681;-75
2021/12/26 10:36:44;;;;;;;6.18;1.77;;;12.30;57.40;;;;;;5052121;28;20053;-75
2021/12/26 10:39:12;;;;;;;6.13;2.08;;;;;;;;;;5031888;28;20522;-75
2021/12/26 10:41:42;;;;;;;6.97;2.20;;;12.40;57.80;;;;;;5032468;28;20053;-75
2021/12/26 10:44:30;;;;;;;5.93;1.90;;;12.30;57.80;;;;;;5032880;28;20041;-75
2021/12/26 10:46:58;;;;;;;5.72;2.03;;;12.20;57.60;;;;;;5032749;28;20148;-75
2021/12/26 10:49:28;;;;;;;5.38;2.22;;;12.20;57.60;;;;;;5032910;28;20506;-75
2021/12/26 10:51:55;;;;;;;4.90;2.05;;;12.30;57.90;;;;;;5033170;28;20187;-75
2021/12/26 10:54:25;;;;;;;3.70;1.90;;;;;;;;;;5036935;28;20135;-75
2021/12/26 10:57:11;;;;;;;4.15;2.22;;;12.20;49.50;;;;;;5052259;28;20044;-75
2021/12/26 10:59:41;;;;;;;5.72;2.38;;;12.40;57.90;;;;;;5052632;28;20673;-75
2021/12/26 11:02:08;;;;;;;4.90;2.00;;;12.30;56.70;;;;;;5052875;28;20065;-75
2021/12/26 11:04:38;;;;;;;4.28;2.00;;;12.60;57.70;;;;;;5052745;28;20413;-75
2021/12/26 11:07:08;;;;;;;5.63;2.22;;;12.50;57.80;;;;;;5052300;28;20048;-75
2021/12/26 11:09:35;;;;;;;4.05;2.03;;;12.30;57.50;;;;;;5052664;28;20604;-75
2021/12/26 11:12:04;;;;;;;4.32;1.67;;;12.30;57.70;;;;;;5051006;28;20140;-75
2021/12/26 11:14:31;;;;;;;4.70;2.00;;;12.40;57.70;;;;;;5052157;28;20132;-75
2021/12/26 11:16:57;;;;;;;3.58;1.73;;;12.60;57.60;;;;;;5052076;28;20470;-75
2021/12/26 11:19:42;;;;;;;2.95;1.80;;;12.50;47.20;;;;;;5052301;28;20055;-75
2021/12/26 11:22:09;;;;;;;4.47;1.90;;;12.60;58.40;;;;;;5052422;28;20135;-75
2021/12/26 11:24:36;;;;;;;3.80;1.80;;;;;;;;;;5052211;28;20076;-75
2021/12/26 11:27:04;;;;;;;3.17;1.85;;;12.00;57.10;;;;;;5052114;28;20135;-75
2021/12/26 11:29:31;;;;;;;2.72;1.90;;;12.50;57.30;;;;;;5035343;28;20517;-75
2021/12/26 11:31:58;;;;;;;4.15;2.00;;;;;;;;;;5032182;28;20147;-75
2021/12/26 11:34:26;;;;;;;4.25;1.90;;;12.60;56.00;;;;;;5032264;28;20136;-75
2021/12/26 11:36:54;;;;;;;3.30;1.52;;;12.50;47.10;;;;;;5031995;28;20132;-75
2021/12/26 11:39:21;;;;;;;4.88;2.10;;;;;;;;;;5031846;28;20128;-75
2021/12/26 11:41:52;;;;;;;3.60;1.83;;;12.40;57.40;;;;;;5031901;28;20144;-75
2021/12/26 11:44:29;;;;;;;4.43;1.90;;;12.50;47.20;;;;;;5033190;28;20060;-75
2021/12/26 11:47:07;;;;;;;4.45;2.05;;;12.40;57.70;;;;;;5031648;28;20136;-75
2021/12/26 11:50:03;;;;;;;2.50;1.70;;;12.40;57.50;;;;;;5031660;28;20136;-75
2021/12/26 11:52:37;;;;;;;2.10;1.50;;;12.30;50.00;;;;;;5030921;28;20064;-75
2021/12/26 11:55:10;;;;;;;3.40;1.90;;;12.40;57.80;;;;;;5031713;28;20050;-75
2021/12/26 11:58:07;;;;;;;4.43;2.40;;;12.40;47.20;;;;;;5031587;28;20061;-75
2021/12/26 12:00:36;;;;;;;2.85;1.83;;;12.40;55.20;;;;;;5031372;28;20053;-75
2021/12/26 12:03:04;;;;;;;3.92;2.08;;;12.30;57.70;;;;;;5032985;28;20049;-75
2021/12/26 12:05:37;;;;;;;2.60;2.00;;;12.40;47.20;;;;;;5031286;28;20057;-75
2021/12/26 12:08:06;;;;;;;2.88;1.75;;;12.40;47.30;;;;;;5031760;28;20049;-75
2021/12/26 12:10:44;;;;;;;2.58;1.70;;;12.00;57.30;;;;;;5031485;28;20140;-75
2021/12/26 12:13:13;;;;;;;4.28;2.00;;;12.50;57.80;;;;;;5031130;28;20053;-75
2021/12/26 12:15:49;;;;;;;2.95;1.80;;;12.50;47.80;;;;;;5031297;28;20136;-75
2021/12/26 12:18:18;;;;;;;2.55;1.55;;;12.40;54.50;;;;;;5031529;28;20554;-75
2021/12/26 12:20:45;;;;;;;2.55;1.50;;;12.40;57.60;;;;;;5066891;28;20591;-75
2021/12/26 12:23:16;;;;;;;3.25;1.90;;;12.40;47.20;;;;;;5051252;28;20088;-75
2021/12/26 12:25:49;;;;;;;2.55;1.52;;;12.50;57.80;;;;;;5050829;28;20084;-75
2021/12/26 12:28:24;;;;;;;2.78;1.63;;;12.50;57.60;;;;;;5051006;28;20059;-75
2021/12/26 12:30:52;;;;;;;2.97;1.90;;;12.60;50.10;;;;;;5050894;28;20053;-75
2021/12/26 12:33:22;;;;;;;3.22;1.83;;;12.50;51.10;;;;;;5051167;28;20136;-75
2021/12/26 12:35:56;;;;;;;3.15;1.60;;;12.10;48.40;;;;;;5049225;28;20049;-75
2021/12/26 12:38:27;;;;;;;4.40;1.83;;;12.30;57.50;;;;;;5050662;28;20508;-75
2021/12/26 12:40:54;;;;;;;2.75;1.50;;;12.50;57.90;;;;;;5050678;28;20052;-75
2021/12/26 12:43:22;;;;;;;2.13;1.58;;;12.20;51.30;;;;;;5051008;28;20147;-75
2021/12/26 12:46:05;;;;;;;1.88;1.50;;;12.40;47.30;;;;;;5050739;28;20450;-75
2021/12/26 12:48:33;;;;;;;2.78;1.63;;;12.40;57.70;;;;;;5050982;28;20088;-75
2021/12/26 12:51:02;;;;;;;2.97;1.77;;;12.30;57.60;;;;;;5050543;28;20045;-75
2021/12/26 12:53:40;;;;;;;2.22;1.70;;;12.30;47.30;;;;;;5049032;28;20149;-75
2021/12/26 12:56:07;;;;;;;3.17;1.67;;;;;;;;;;5050384;28;20135;-75
2021/12/26 12:58:37;;;;;;;3.35;1.77;;;12.30;57.40;;;;;;5050555;28;20437;-75
2021/12/26 13:01:05;;;;;;;2.13;1.67;;;12.40;57.70;;;;;;5050484;28;20049;-75
2021/12/26 13:03:34;;;;;;;3.50;1.90;;;12.60;57.80;;;;;;5067240;28;20521;-75
2021/12/26 13:06:06;;;;;;;2.45;1.75;;;12.30;57.40;;;;;;5050514;28;20049;-75
2021/12/26 13:08:33;;;;;;;2.05;1.52;;;12.00;57.80;;;;;;5050788;28;20060;-74
2021/12/26 13:11:01;;;;;;;2.53;1.60;;;12.40;54.60;;;;;;5048665;28;20055;-75
2021/12/26 13:13:28;;;;;;;2.63;1.60;;;12.50;58.00;;;;;;5050666;28;20429;-75
2021/12/26 13:15:56;;;;;;;2.15;1.42;;;12.30;57.90;;;;;;5050485;28;20140;-75
2021/12/26 13:18:24;;;;;;;2.70;1.92;;;12.30;47.30;;;;;;5050386;28;20144;-75
2021/12/26 13:20:51;;;;;;;2.38;1.60;;;12.40;57.90;;;;;;5050370;28;20132;-75
2021/12/26 13:23:18;;;;;;;2.38;1.60;;;12.40;57.90;;;;;;5050444;28;20147;-75
2021/12/26 13:25:46;;;;;;;2.75;1.83;;;;;;;;;;5050289;28;20151;-75